sensor_id;sensor_type;location;lat;lon;timestamp;temperature;humidity
54409;DHT22;40315;48.620;9.828;2022-07-30T00:01:29;17.10;99.90
54409;DHT22;40315;48.620;9.828;2022-07-30T00:03:58;17.20;99.90
54409;DHT22;40315;48.620;9.828;2022-07-30T00:06:27;17.00;99.90
54409;DHT22;40315;48.620;9.828;2022-07-30T00:08:57;17.00;99.90
54409;DHT22;40315;48.620;9.828;2022-07-30T00:11:24;17.00;99.90
54409;DHT22;40315;48.620;9.828;2022-07-30T00:13:51;17.00;99.90
54409;DHT22;40315;48.620;9.828;2022-07-30T00:16:18;17.00;99.90
54409;DHT22;40315;48.620;9.828;2022-07-30T00:18:48;16.90;99.90
54409;DHT22;40315;48.620;9.828;2022-07-30T00:21:15;17.00;99.90
54409;DHT22;40315;48.620;9.828;2022-07-30T00:23:43;17.00;99.90
54409;DHT22;40315;48.620;9.828;2022-07-30T00:26:10;16.90;99.90
54409;DHT22;40315;48.620;9.828;2022-07-30T00:28:37;16.90;99.90
54409;DHT22;40315;48.620;9.828;2022-07-30T00:31:04;16.90;99.90
54409;DHT22;40315;48.620;9.828;2022-07-30T00:33:31;16.90;99.90
54409;DHT22;40315;48.620;9.828;2022-07-30T00:35:58;16.70;99.90
54409;DHT22;40315;48.620;9.828;2022-07-30T00:38:25;16.60;99.90
54409;DHT22;40315;48.620;9.828;2022-07-30T00:40:58;16.60;99.90
54409;DHT22;40315;48.620;9.828;2022-07-30T00:43:27;16.70;99.90
54409;DHT22;40315;48.620;9.828;2022-07-30T00:45:54;16.50;99.90
54409;DHT22;40315;48.620;9.828;2022-07-30T00:48:21;16.60;99.90
54409;DHT22;40315;48.620;9.828;2022-07-30T00:50:48;16.60;99.90
54409;DHT22;40315;48.620;9.828;2022-07-30T00:53:15;16.60;99.90
54409;DHT22;40315;48.620;9.828;2022-07-30T00:55:42;16.50;99.90
54409;DHT22;40315;48.620;9.828;2022-07-30T00:58:11;16.40;99.90
54409;DHT22;40315;48.620;9.828;2022-07-30T01:03:13;16.40;99.90
54409;DHT22;40315;48.620;9.828;2022-07-30T01:05:43;16.20;99.90
54409;DHT22;40315;48.620;9.828;2022-07-30T01:08:10;16.10;99.90
54409;DHT22;40315;48.620;9.828;2022-07-30T01:10:37;16.10;99.90
54409;DHT22;40315;48.620;9.828;2022-07-30T01:13:05;16.20;99.90
54409;DHT22;40315;48.620;9.828;2022-07-30T01:15:34;16.20;99.90
54409;DHT22;40315;48.620;9.828;2022-07-30T01:18:04;16.30;99.90
54409;DHT22;40315;48.620;9.828;2022-07-30T01:20:37;16.40;99.90
54409;DHT22;40315;48.620;9.828;2022-07-30T01:23:09;16.30;99.90
54409;DHT22;40315;48.620;9.828;2022-07-30T01:25:53;16.30;99.90
54409;DHT22;40315;48.620;9.828;2022-07-30T01:28:25;16.10;99.90
54409;DHT22;40315;48.620;9.828;2022-07-30T01:30:54;16.20;99.90
54409;DHT22;40315;48.620;9.828;2022-07-30T01:33:23;16.20;99.90
54409;DHT22;40315;48.620;9.828;2022-07-30T01:35:53;16.30;99.90
54409;DHT22;40315;48.620;9.828;2022-07-30T01:38:25;16.20;99.90
54409;DHT22;40315;48.620;9.828;2022-07-30T06:46:47;21.80;99.90
54409;DHT22;40315;48.620;9.828;2022-07-30T06:49:17;21.60;99.90
54409;DHT22;40315;48.620;9.828;2022-07-30T06:51:44;21.70;99.90
54409;DHT22;40315;48.620;9.828;2022-07-30T06:54:11;21.50;99.90
54409;DHT22;40315;48.620;9.828;2022-07-30T06:57:00;21.30;99.90
54409;DHT22;40315;48.620;9.828;2022-07-30T06:59:29;21.40;99.90
54409;DHT22;40315;48.620;9.828;2022-07-30T07:02:16;21.30;99.90
54409;DHT22;40315;48.620;9.828;2022-07-30T07:05:03;21.30;99.90
54409;DHT22;40315;48.620;9.828;2022-07-30T07:07:33;21.30;99.90
54409;DHT22;40315;48.620;9.828;2022-07-30T07:10:05;21.50;99.90
54409;DHT22;40315;48.620;9.828;2022-07-30T07:12:39;22.00;99.90
54409;DHT22;40315;48.620;9.828;2022-07-30T07:15:08;21.80;99.90
54409;DHT22;40315;48.620;9.828;2022-07-30T07:17:40;21.60;99.90
54409;DHT22;40315;48.620;9.828;2022-07-30T07:20:19;21.20;99.90
54409;DHT22;40315;48.620;9.828;2022-07-30T07:22:53;21.10;99.90
54409;DHT22;40315;48.620;9.828;2022-07-30T07:25:20;21.70;99.90
54409;DHT22;40315;48.620;9.828;2022-07-30T07:27:49;22.10;99.90
54409;DHT22;40315;48.620;9.828;2022-07-30T07:30:16;22.20;99.90
54409;DHT22;40315;48.620;9.828;2022-07-30T07:32:45;21.90;99.90
54409;DHT22;40315;48.620;9.828;2022-07-30T07:35:14;22.00;99.90
54409;DHT22;40315;48.620;9.828;2022-07-30T07:37:46;21.90;99.90
54409;DHT22;40315;48.620;9.828;2022-07-30T07:40:19;21.50;99.90
54409;DHT22;40315;48.620;9.828;2022-07-30T07:42:47;22.00;99.90
54409;DHT22;40315;48.620;9.828;2022-07-30T07:45:17;22.00;99.90
54409;DHT22;40315;48.620;9.828;2022-07-30T07:47:57;22.10;99.90
54409;DHT22;40315;48.620;9.828;2022-07-30T07:50:53;22.20;99.90
54409;DHT22;40315;48.620;9.828;2022-07-30T07:53:24;22.90;99.90
54409;DHT22;40315;48.620;9.828;2022-07-30T07:55:51;22.30;99.90
54409;DHT22;40315;48.620;9.828;2022-07-30T07:58:20;22.50;99.90
54409;DHT22;40315;48.620;9.828;2022-07-30T08:00:47;22.50;99.90
54409;DHT22;40315;48.620;9.828;2022-07-30T08:03:20;22.80;99.90
54409;DHT22;40315;48.620;9.828;2022-07-30T08:05:47;22.20;99.90
54409;DHT22;40315;48.620;9.828;2022-07-30T08:08:23;22.40;99.90
54409;DHT22;40315;48.620;9.828;2022-07-30T08:11:09;22.30;99.90
54409;DHT22;40315;48.620;9.828;2022-07-30T08:13:59;22.40;99.90
54409;DHT22;40315;48.620;9.828;2022-07-30T08:16:45;22.60;99.90
54409;DHT22;40315;48.620;9.828;2022-07-30T08:19:33;22.70;99.90
54409;DHT22;40315;48.620;9.828;2022-07-30T08:22:11;22.70;99.90
54409;DHT22;40315;48.620;9.828;2022-07-30T08:24:41;22.10;99.90
54409;DHT22;40315;48.620;9.828;2022-07-30T08:27:08;22.00;99.90
54409;DHT22;40315;48.620;9.828;2022-07-30T08:29:38;21.90;99.90
54409;DHT22;40315;48.620;9.828;2022-07-30T08:32:05;22.30;99.90
54409;DHT22;40315;48.620;9.828;2022-07-30T08:34:37;22.30;99.90
54409;DHT22;40315;48.620;9.828;2022-07-30T08:37:04;22.20;99.90
54409;DHT22;40315;48.620;9.828;2022-07-30T08:39:34;22.00;99.90
54409;DHT22;40315;48.620;9.828;2022-07-30T08:42:04;22.30;99.90
54409;DHT22;40315;48.620;9.828;2022-07-30T08:44:32;23.00;99.90
54409;DHT22;40315;48.620;9.828;2022-07-30T08:47:00;22.50;99.90
54409;DHT22;40315;48.620;9.828;2022-07-30T08:49:49;22.40;99.90
54409;DHT22;40315;48.620;9.828;2022-07-30T08:52:22;23.00;99.90
54409;DHT22;40315;48.620;9.828;2022-07-30T08:55:00;23.10;99.90
54409;DHT22;40315;48.620;9.828;2022-07-30T08:57:28;23.40;99.90
54409;DHT22;40315;48.620;9.828;2022-07-30T08:59:57;23.00;99.90
54409;DHT22;40315;48.620;9.828;2022-07-30T09:02:29;22.70;99.90
54409;DHT22;40315;48.620;9.828;2022-07-30T09:05:04;22.30;99.90
54409;DHT22;40315;48.620;9.828;2022-07-30T09:07:32;21.80;99.90
54409;DHT22;40315;48.620;9.828;2022-07-30T09:10:01;22.30;99.90
54409;DHT22;40315;48.620;9.828;2022-07-30T09:12:34;22.10;99.90
54409;DHT22;40315;48.620;9.828;2022-07-30T09:15:05;22.20;99.90
54409;DHT22;40315;48.620;9.828;2022-07-30T09:17:51;22.50;99.90
54409;DHT22;40315;48.620;9.828;2022-07-30T09:20:22;22.50;99.90
54409;DHT22;40315;48.620;9.828;2022-07-30T09:22:54;22.80;99.90
54409;DHT22;40315;48.620;9.828;2022-07-30T09:25:43;22.70;99.90
54409;DHT22;40315;48.620;9.828;2022-07-30T09:28:48;23.10;99.90
54409;DHT22;40315;48.620;9.828;2022-07-30T09:31:52;23.30;99.90
54409;DHT22;40315;48.620;9.828;2022-07-30T09:34:43;23.40;99.90
54409;DHT22;40315;48.620;9.828;2022-07-30T09:37:38;23.00;99.90
54409;DHT22;40315;48.620;9.828;2022-07-30T09:40:28;22.60;99.90
54409;DHT22;40315;48.620;9.828;2022-07-30T09:43:41;22.80;99.90
54409;DHT22;40315;48.620;9.828;2022-07-30T09:46:13;22.80;99.90
54409;DHT22;40315;48.620;9.828;2022-07-30T09:48:43;23.00;99.90
54409;DHT22;40315;48.620;9.828;2022-07-30T09:51:11;23.40;99.90
54409;DHT22;40315;48.620;9.828;2022-07-30T09:53:56;22.70;99.20
54409;DHT22;40315;48.620;9.828;2022-07-30T09:56:26;22.30;99.80
54409;DHT22;40315;48.620;9.828;2022-07-30T09:58:53;22.60;99.90
54409;DHT22;40315;48.620;9.828;2022-07-30T10:01:21;23.20;99.90
54409;DHT22;40315;48.620;9.828;2022-07-30T10:04:06;23.30;99.00
54409;DHT22;40315;48.620;9.828;2022-07-30T10:06:55;23.00;98.70
54409;DHT22;40315;48.620;9.828;2022-07-30T10:09:38;22.70;99.60
54409;DHT22;40315;48.620;9.828;2022-07-30T10:12:13;22.70;99.80
54409;DHT22;40315;48.620;9.828;2022-07-30T10:14:46;23.10;99.00
54409;DHT22;40315;48.620;9.828;2022-07-30T10:17:17;23.00;99.40
54409;DHT22;40315;48.620;9.828;2022-07-30T10:19:55;22.80;98.00
54409;DHT22;40315;48.620;9.828;2022-07-30T10:22:45;22.80;98.30
54409;DHT22;40315;48.620;9.828;2022-07-30T10:25:33;22.50;99.20
54409;DHT22;40315;48.620;9.828;2022-07-30T10:28:19;22.90;99.60
54409;DHT22;40315;48.620;9.828;2022-07-30T10:30:48;23.10;97.70
54409;DHT22;40315;48.620;9.828;2022-07-30T10:33:16;23.70;99.90
54409;DHT22;40315;48.620;9.828;2022-07-30T10:35:43;24.40;97.50
54409;DHT22;40315;48.620;9.828;2022-07-30T10:38:11;24.00;96.50
54409;DHT22;40315;48.620;9.828;2022-07-30T10:40:49;23.90;97.20
54409;DHT22;40315;48.620;9.828;2022-07-30T10:43:41;23.80;98.50
54409;DHT22;40315;48.620;9.828;2022-07-30T10:46:15;24.30;96.60
54409;DHT22;40315;48.620;9.828;2022-07-30T10:48:46;24.10;95.90
54409;DHT22;40315;48.620;9.828;2022-07-30T10:51:13;24.10;95.50
54409;DHT22;40315;48.620;9.828;2022-07-30T10:53:44;24.20;95.90
54409;DHT22;40315;48.620;9.828;2022-07-30T10:56:16;24.70;94.60
54409;DHT22;40315;48.620;9.828;2022-07-30T10:58:57;24.90;93.60
54409;DHT22;40315;48.620;9.828;2022-07-30T11:02:07;24.50;93.60
54409;DHT22;40315;48.620;9.828;2022-07-30T11:04:38;25.00;94.10
54409;DHT22;40315;48.620;9.828;2022-07-30T11:07:35;25.10;94.60
54409;DHT22;40315;48.620;9.828;2022-07-30T11:10:05;26.00;93.10
54409;DHT22;40315;48.620;9.828;2022-07-30T11:12:53;26.00;90.60
54409;DHT22;40315;48.620;9.828;2022-07-30T11:15:20;25.60;91.90
54409;DHT22;40315;48.620;9.828;2022-07-30T11:17:58;25.60;90.30
54409;DHT22;40315;48.620;9.828;2022-07-30T11:20:26;26.10;91.70
54409;DHT22;40315;48.620;9.828;2022-07-30T11:22:54;26.90;91.60
54409;DHT22;40315;48.620;9.828;2022-07-30T11:25:39;26.60;87.40
54409;DHT22;40315;48.620;9.828;2022-07-30T11:28:40;25.30;89.60
54409;DHT22;40315;48.620;9.828;2022-07-30T11:31:29;26.00;90.00
54409;DHT22;40315;48.620;9.828;2022-07-30T11:34:23;26.20;90.10
54409;DHT22;40315;48.620;9.828;2022-07-30T11:37:10;26.70;88.20
54409;DHT22;40315;48.620;9.828;2022-07-30T11:40:08;27.00;85.60
54409;DHT22;40315;48.620;9.828;2022-07-30T11:42:41;27.40;86.10
54409;DHT22;40315;48.620;9.828;2022-07-30T11:45:24;27.30;86.40
54409;DHT22;40315;48.620;9.828;2022-07-30T11:47:57;27.60;83.70
54409;DHT22;40315;48.620;9.828;2022-07-30T11:50:28;25.80;85.80
54409;DHT22;40315;48.620;9.828;2022-07-30T11:52:56;25.30;89.30
54409;DHT22;40315;48.620;9.828;2022-07-30T11:55:26;25.40;87.40
54409;DHT22;40315;48.620;9.828;2022-07-30T11:57:55;25.00;89.00
54409;DHT22;40315;48.620;9.828;2022-07-30T12:00:33;23.40;87.40
54409;DHT22;40315;48.620;9.828;2022-07-30T12:03:06;25.00;88.40
54409;DHT22;40315;48.620;9.828;2022-07-30T12:05:34;25.30;85.90
54409;DHT22;40315;48.620;9.828;2022-07-30T12:08:01;24.80;86.10
54409;DHT22;40315;48.620;9.828;2022-07-30T12:10:30;24.80;90.40
54409;DHT22;40315;48.620;9.828;2022-07-30T12:13:08;24.90;89.70
54409;DHT22;40315;48.620;9.828;2022-07-30T12:15:38;25.20;88.20
54409;DHT22;40315;48.620;9.828;2022-07-30T12:18:08;25.20;85.70
54409;DHT22;40315;48.620;9.828;2022-07-30T12:20:39;25.10;89.30
54409;DHT22;40315;48.620;9.828;2022-07-30T12:23:10;25.40;84.20
54409;DHT22;40315;48.620;9.828;2022-07-30T12:25:38;25.40;85.00
54409;DHT22;40315;48.620;9.828;2022-07-30T12:28:08;25.10;85.80
54409;DHT22;40315;48.620;9.828;2022-07-30T12:30:40;25.20;83.10
54409;DHT22;40315;48.620;9.828;2022-07-30T12:33:09;25.70;83.40
54409;DHT22;40315;48.620;9.828;2022-07-30T12:35:44;25.40;83.20
54409;DHT22;40315;48.620;9.828;2022-07-30T12:38:11;25.50;84.60
54409;DHT22;40315;48.620;9.828;2022-07-30T12:40:56;25.70;82.90
54409;DHT22;40315;48.620;9.828;2022-07-30T12:43:43;26.10;82.10
54409;DHT22;40315;48.620;9.828;2022-07-30T12:46:14;25.40;82.90
54409;DHT22;40315;48.620;9.828;2022-07-30T12:48:48;25.60;84.70
54409;DHT22;40315;48.620;9.828;2022-07-30T12:51:16;26.10;83.00
54409;DHT22;40315;48.620;9.828;2022-07-30T12:53:43;25.70;81.50
54409;DHT22;40315;48.620;9.828;2022-07-30T12:56:10;25.10;82.90
54409;DHT22;40315;48.620;9.828;2022-07-30T12:58:41;25.30;83.80
54409;DHT22;40315;48.620;9.828;2022-07-30T13:01:08;25.50;83.00
54409;DHT22;40315;48.620;9.828;2022-07-30T13:03:37;25.60;82.60
54409;DHT22;40315;48.620;9.828;2022-07-30T13:06:14;25.80;83.70
54409;DHT22;40315;48.620;9.828;2022-07-30T13:08:47;25.10;82.30
54409;DHT22;40315;48.620;9.828;2022-07-30T13:11:15;24.80;83.90
54409;DHT22;40315;48.620;9.828;2022-07-30T13:13:43;24.80;83.50
54409;DHT22;40315;48.620;9.828;2022-07-30T13:16:11;24.70;83.70
54409;DHT22;40315;48.620;9.828;2022-07-30T13:18:42;24.90;84.10
54409;DHT22;40315;48.620;9.828;2022-07-30T13:21:09;25.30;84.50
54409;DHT22;40315;48.620;9.828;2022-07-30T13:23:37;25.80;84.80
54409;DHT22;40315;48.620;9.828;2022-07-30T13:26:06;25.70;80.30
54409;DHT22;40315;48.620;9.828;2022-07-30T13:28:33;26.10;80.80
54409;DHT22;40315;48.620;9.828;2022-07-30T13:31:01;26.30;79.40
54409;DHT22;40315;48.620;9.828;2022-07-30T13:33:28;26.60;79.30
54409;DHT22;40315;48.620;9.828;2022-07-30T13:35:56;26.90;77.10
54409;DHT22;40315;48.620;9.828;2022-07-30T13:38:24;26.70;77.30
54409;DHT22;40315;48.620;9.828;2022-07-30T13:40:52;26.80;76.50
54409;DHT22;40315;48.620;9.828;2022-07-30T13:43:19;26.90;76.60
54409;DHT22;40315;48.620;9.828;2022-07-30T13:45:47;26.90;76.80
54409;DHT22;40315;48.620;9.828;2022-07-30T13:48:14;27.60;75.70
54409;DHT22;40315;48.620;9.828;2022-07-30T13:50:44;27.90;73.70
54409;DHT22;40315;48.620;9.828;2022-07-30T13:53:12;27.80;73.10
54409;DHT22;40315;48.620;9.828;2022-07-30T13:55:42;27.90;72.30
54409;DHT22;40315;48.620;9.828;2022-07-30T13:58:10;27.10;72.10
54409;DHT22;40315;48.620;9.828;2022-07-30T14:00:37;26.80;74.70
54409;DHT22;40315;48.620;9.828;2022-07-30T14:03:06;27.00;74.20
54409;DHT22;40315;48.620;9.828;2022-07-30T14:05:36;27.20;72.70
54409;DHT22;40315;48.620;9.828;2022-07-30T14:08:04;27.20;72.50
54409;DHT22;40315;48.620;9.828;2022-07-30T14:10:34;27.60;75.20
54409;DHT22;40315;48.620;9.828;2022-07-30T14:13:05;27.50;72.30
54409;DHT22;40315;48.620;9.828;2022-07-30T14:15:32;27.50;71.80
54409;DHT22;40315;48.620;9.828;2022-07-30T14:18:00;27.70;70.00
54409;DHT22;40315;48.620;9.828;2022-07-30T14:20:27;27.30;72.50
54409;DHT22;40315;48.620;9.828;2022-07-30T14:22:55;27.20;71.00
54409;DHT22;40315;48.620;9.828;2022-07-30T14:25:22;26.80;72.20
54409;DHT22;40315;48.620;9.828;2022-07-30T14:27:53;26.80;71.00
54409;DHT22;40315;48.620;9.828;2022-07-30T14:30:20;26.80;71.50
54409;DHT22;40315;48.620;9.828;2022-07-30T14:32:49;26.20;70.10
54409;DHT22;40315;48.620;9.828;2022-07-30T14:35:16;27.00;70.80
54409;DHT22;40315;48.620;9.828;2022-07-30T14:37:43;27.10;71.50
54409;DHT22;40315;48.620;9.828;2022-07-30T14:40:11;27.00;73.90
54409;DHT22;40315;48.620;9.828;2022-07-30T14:42:40;27.40;73.10
54409;DHT22;40315;48.620;9.828;2022-07-30T14:45:11;27.40;71.80
54409;DHT22;40315;48.620;9.828;2022-07-30T14:47:38;27.70;68.10
54409;DHT22;40315;48.620;9.828;2022-07-30T14:50:08;27.60;69.40
54409;DHT22;40315;48.620;9.828;2022-07-30T14:52:35;27.60;68.80
54409;DHT22;40315;48.620;9.828;2022-07-30T14:55:04;27.80;67.00
54409;DHT22;40315;48.620;9.828;2022-07-30T14:57:32;28.20;70.00
54409;DHT22;40315;48.620;9.828;2022-07-30T14:59:59;28.30;67.40
54409;DHT22;40315;48.620;9.828;2022-07-30T15:02:27;28.70;68.60
54409;DHT22;40315;48.620;9.828;2022-07-30T15:04:54;28.50;65.60
54409;DHT22;40315;48.620;9.828;2022-07-30T15:07:22;28.30;69.30
54409;DHT22;40315;48.620;9.828;2022-07-30T15:09:49;28.10;65.70
54409;DHT22;40315;48.620;9.828;2022-07-30T15:12:16;27.70;66.40
54409;DHT22;40315;48.620;9.828;2022-07-30T15:14:43;27.60;67.60
54409;DHT22;40315;48.620;9.828;2022-07-30T15:17:13;27.40;67.00
54409;DHT22;40315;48.620;9.828;2022-07-30T15:19:41;27.60;67.30
54409;DHT22;40315;48.620;9.828;2022-07-30T15:22:11;28.20;67.40
54409;DHT22;40315;48.620;9.828;2022-07-30T15:24:40;28.60;68.10
54409;DHT22;40315;48.620;9.828;2022-07-30T15:27:07;29.20;64.10
54409;DHT22;40315;48.620;9.828;2022-07-30T15:29:34;28.70;65.80
54409;DHT22;40315;48.620;9.828;2022-07-30T15:32:02;28.90;66.40
54409;DHT22;40315;48.620;9.828;2022-07-30T15:34:29;28.80;64.60
54409;DHT22;40315;48.620;9.828;2022-07-30T15:37:00;27.90;65.20
54409;DHT22;40315;48.620;9.828;2022-07-30T15:39:27;27.50;66.10
54409;DHT22;40315;48.620;9.828;2022-07-30T15:41:56;27.20;68.00
54409;DHT22;40315;48.620;9.828;2022-07-30T15:44:24;27.40;66.80
54409;DHT22;40315;48.620;9.828;2022-07-30T15:46:51;27.60;67.20
54409;DHT22;40315;48.620;9.828;2022-07-30T15:49:18;27.30;67.10
54409;DHT22;40315;48.620;9.828;2022-07-30T15:51:45;26.90;68.60
54409;DHT22;40315;48.620;9.828;2022-07-30T15:54:20;26.70;68.20
54409;DHT22;40315;48.620;9.828;2022-07-30T15:56:48;26.60;69.60
54409;DHT22;40315;48.620;9.828;2022-07-30T15:59:16;26.90;67.90
54409;DHT22;40315;48.620;9.828;2022-07-30T16:01:45;26.90;68.20
54409;DHT22;40315;48.620;9.828;2022-07-30T16:04:12;26.80;69.20
54409;DHT22;40315;48.620;9.828;2022-07-30T16:06:39;26.90;68.60
54409;DHT22;40315;48.620;9.828;2022-07-30T16:09:07;26.90;67.80
54409;DHT22;40315;48.620;9.828;2022-07-30T16:11:38;26.60;68.40
54409;DHT22;40315;48.620;9.828;2022-07-30T16:14:06;26.20;68.50
54409;DHT22;40315;48.620;9.828;2022-07-30T16:16:36;26.10;71.30
54409;DHT22;40315;48.620;9.828;2022-07-30T16:19:05;25.90;70.70
54409;DHT22;40315;48.620;9.828;2022-07-30T16:21:35;26.00;70.50
54409;DHT22;40315;48.620;9.828;2022-07-30T16:24:02;25.80;71.10
54409;DHT22;40315;48.620;9.828;2022-07-30T16:26:29;25.80;71.50
54409;DHT22;40315;48.620;9.828;2022-07-30T16:28:58;25.60;72.50
54409;DHT22;40315;48.620;9.828;2022-07-30T16:31:25;25.40;73.40
54409;DHT22;40315;48.620;9.828;2022-07-30T16:33:52;25.40;75.20
54409;DHT22;40315;48.620;9.828;2022-07-30T16:36:19;25.60;77.10
54409;DHT22;40315;48.620;9.828;2022-07-30T16:38:46;26.10;80.60
54409;DHT22;40315;48.620;9.828;2022-07-30T16:41:13;26.40;84.60
54409;DHT22;40315;48.620;9.828;2022-07-30T16:43:40;26.60;83.80
54409;DHT22;40315;48.620;9.828;2022-07-30T16:46:09;26.80;81.90
54409;DHT22;40315;48.620;9.828;2022-07-30T16:48:36;26.90;78.70
54409;DHT22;40315;48.620;9.828;2022-07-30T16:51:06;26.90;76.40
54409;DHT22;40315;48.620;9.828;2022-07-30T16:53:33;26.80;78.10
54409;DHT22;40315;48.620;9.828;2022-07-30T16:56:03;26.90;76.70
54409;DHT22;40315;48.620;9.828;2022-07-30T16:58:32;26.90;76.50
54409;DHT22;40315;48.620;9.828;2022-07-30T17:00:59;27.00;76.20
54409;DHT22;40315;48.620;9.828;2022-07-30T17:03:28;27.00;75.60
54409;DHT22;40315;48.620;9.828;2022-07-30T17:05:55;26.90;76.20
54409;DHT22;40315;48.620;9.828;2022-07-30T17:08:22;26.90;76.10
54409;DHT22;40315;48.620;9.828;2022-07-30T17:10:52;26.90;76.20
54409;DHT22;40315;48.620;9.828;2022-07-30T17:13:19;26.80;74.90
54409;DHT22;40315;48.620;9.828;2022-07-30T17:15:49;26.70;73.50
54409;DHT22;40315;48.620;9.828;2022-07-30T17:18:16;26.50;76.00
54409;DHT22;40315;48.620;9.828;2022-07-30T17:20:45;26.50;77.20
54409;DHT22;40315;48.620;9.828;2022-07-30T17:23:14;26.40;76.80
54409;DHT22;40315;48.620;9.828;2022-07-30T17:25:42;26.20;79.30
54409;DHT22;40315;48.620;9.828;2022-07-30T17:28:09;26.10;82.40
54409;DHT22;40315;48.620;9.828;2022-07-30T17:30:36;25.90;84.40
54409;DHT22;40315;48.620;9.828;2022-07-30T17:33:03;25.80;80.00
54409;DHT22;40315;48.620;9.828;2022-07-30T17:35:31;25.80;76.90
54409;DHT22;40315;48.620;9.828;2022-07-30T17:37:59;25.60;77.50
54409;DHT22;40315;48.620;9.828;2022-07-30T17:40:27;25.60;77.10
54409;DHT22;40315;48.620;9.828;2022-07-30T17:42:56;25.70;77.50
54409;DHT22;40315;48.620;9.828;2022-07-30T17:45:27;25.70;76.80
54409;DHT22;40315;48.620;9.828;2022-07-30T17:47:55;25.80;78.20
54409;DHT22;40315;48.620;9.828;2022-07-30T17:50:22;25.50;77.50
54409;DHT22;40315;48.620;9.828;2022-07-30T17:52:49;25.60;77.60
54409;DHT22;40315;48.620;9.828;2022-07-30T17:55:17;25.50;76.00
54409;DHT22;40315;48.620;9.828;2022-07-30T17:57:44;25.40;77.60
54409;DHT22;40315;48.620;9.828;2022-07-30T18:00:12;25.40;76.80
54409;DHT22;40315;48.620;9.828;2022-07-30T18:02:42;25.30;78.10
54409;DHT22;40315;48.620;9.828;2022-07-30T18:05:09;25.20;77.70
54409;DHT22;40315;48.620;9.828;2022-07-30T18:07:39;25.20;77.70
54409;DHT22;40315;48.620;9.828;2022-07-30T18:10:07;25.10;76.30
54409;DHT22;40315;48.620;9.828;2022-07-30T18:12:35;25.00;78.20
54409;DHT22;40315;48.620;9.828;2022-07-30T18:15:03;25.10;78.10
54409;DHT22;40315;48.620;9.828;2022-07-30T18:17:31;23.10;77.30
54409;DHT22;40315;48.620;9.828;2022-07-30T18:20:00;25.10;79.00
54409;DHT22;40315;48.620;9.828;2022-07-30T18:22:29;25.10;78.80
54409;DHT22;40315;48.620;9.828;2022-07-30T18:24:56;25.00;78.30
54409;DHT22;40315;48.620;9.828;2022-07-30T18:27:24;25.00;78.80
54409;DHT22;40315;48.620;9.828;2022-07-30T18:29:53;24.90;80.80
54409;DHT22;40315;48.620;9.828;2022-07-30T18:32:24;24.90;81.50
54409;DHT22;40315;48.620;9.828;2022-07-30T18:34:51;24.20;79.90
54409;DHT22;40315;48.620;9.828;2022-07-30T18:37:21;24.70;83.80
54409;DHT22;40315;48.620;9.828;2022-07-30T18:39:48;24.70;83.50
54409;DHT22;40315;48.620;9.828;2022-07-30T18:42:15;24.70;84.30
54409;DHT22;40315;48.620;9.828;2022-07-30T18:44:42;22.30;82.80
54409;DHT22;40315;48.620;9.828;2022-07-30T18:47:10;24.60;86.00
54409;DHT22;40315;48.620;9.828;2022-07-30T18:49:38;24.60;87.80
54409;DHT22;40315;48.620;9.828;2022-07-30T18:52:07;24.60;84.50
54409;DHT22;40315;48.620;9.828;2022-07-30T18:54:35;24.70;89.30
54409;DHT22;40315;48.620;9.828;2022-07-30T18:57:03;24.80;89.10
54409;DHT22;40315;48.620;9.828;2022-07-30T18:59:35;24.80;90.10
54409;DHT22;40315;48.620;9.828;2022-07-30T19:02:02;24.90;90.90
54409;DHT22;40315;48.620;9.828;2022-07-30T19:04:33;25.10;91.00
54409;DHT22;40315;48.620;9.828;2022-07-30T19:07:01;25.20;91.20
54409;DHT22;40315;48.620;9.828;2022-07-30T19:09:28;25.20;89.90
54409;DHT22;40315;48.620;9.828;2022-07-30T19:11:55;25.20;90.00
54409;DHT22;40315;48.620;9.828;2022-07-30T19:14:22;25.10;90.10
54409;DHT22;40315;48.620;9.828;2022-07-30T19:16:53;25.00;90.30
54409;DHT22;40315;48.620;9.828;2022-07-30T19:19:20;24.90;92.80
54409;DHT22;40315;48.620;9.828;2022-07-30T19:21:50;24.90;92.80
54409;DHT22;40315;48.620;9.828;2022-07-30T19:24:17;24.90;91.70
54409;DHT22;40315;48.620;9.828;2022-07-30T19:26:45;24.60;92.60
54409;DHT22;40315;48.620;9.828;2022-07-30T19:29:12;24.40;93.10
54409;DHT22;40315;48.620;9.828;2022-07-30T19:31:41;24.40;92.90
54409;DHT22;40315;48.620;9.828;2022-07-30T19:34:09;24.00;94.30
54409;DHT22;40315;48.620;9.828;2022-07-30T19:36:36;23.70;95.40
54409;DHT22;40315;48.620;9.828;2022-07-30T19:39:05;23.40;96.20
54409;DHT22;40315;48.620;9.828;2022-07-30T19:41:38;23.10;96.50
54409;DHT22;40315;48.620;9.828;2022-07-30T19:44:05;22.90;97.00
54409;DHT22;40315;48.620;9.828;2022-07-30T19:46:32;22.60;98.20
54409;DHT22;40315;48.620;9.828;2022-07-30T19:49:00;22.30;99.00
54409;DHT22;40315;48.620;9.828;2022-07-30T19:51:27;22.20;99.60
54409;DHT22;40315;48.620;9.828;2022-07-30T19:53:55;22.00;99.90
54409;DHT22;40315;48.620;9.828;2022-07-30T19:56:26;21.70;99.90
54409;DHT22;40315;48.620;9.828;2022-07-30T19:58:55;21.60;99.90
54409;DHT22;40315;48.620;9.828;2022-07-30T20:01:24;21.40;99.90
54409;DHT22;40315;48.620;9.828;2022-07-30T20:03:51;21.30;99.90
54409;DHT22;40315;48.620;9.828;2022-07-30T20:06:19;21.20;99.90
54409;DHT22;40315;48.620;9.828;2022-07-30T20:08:47;21.20;99.90
54409;DHT22;40315;48.620;9.828;2022-07-30T20:11:16;21.90;99.90
54409;DHT22;40315;48.620;9.828;2022-07-30T20:13:47;21.30;99.90
54409;DHT22;40315;48.620;9.828;2022-07-30T20:16:16;20.70;99.90
54409;DHT22;40315;48.620;9.828;2022-07-30T20:18:45;21.00;99.90
54409;DHT22;40315;48.620;9.828;2022-07-30T20:21:14;20.80;99.90
54409;DHT22;40315;48.620;9.828;2022-07-30T20:23:41;20.80;99.90
54409;DHT22;40315;48.620;9.828;2022-07-30T20:26:09;20.60;99.90
54409;DHT22;40315;48.620;9.828;2022-07-30T20:28:38;20.50;99.90
54409;DHT22;40315;48.620;9.828;2022-07-30T20:31:07;20.30;99.90
54409;DHT22;40315;48.620;9.828;2022-07-30T20:33:36;20.40;99.90
54409;DHT22;40315;48.620;9.828;2022-07-30T20:36:04;20.20;99.90
54409;DHT22;40315;48.620;9.828;2022-07-30T20:38:31;17.60;99.90
54409;DHT22;40315;48.620;9.828;2022-07-30T20:40:59;20.20;99.90
54409;DHT22;40315;48.620;9.828;2022-07-30T20:43:27;20.20;99.90
54409;DHT22;40315;48.620;9.828;2022-07-30T20:45:54;20.10;99.90
54409;DHT22;40315;48.620;9.828;2022-07-30T20:48:24;20.00;99.90
54409;DHT22;40315;48.620;9.828;2022-07-30T20:50:58;20.10;99.90
54409;DHT22;40315;48.620;9.828;2022-07-30T20:53:27;20.10;99.90
54409;DHT22;40315;48.620;9.828;2022-07-30T20:56:02;20.10;99.90
54409;DHT22;40315;48.620;9.828;2022-07-30T20:58:29;20.20;99.90
54409;DHT22;40315;48.620;9.828;2022-07-30T21:00:56;20.20;99.90
54409;DHT22;40315;48.620;9.828;2022-07-30T21:03:25;20.20;99.90